Aviation Digital Data Service (ADDS)

Output produced by METARs form (1108 UTC 19 February 2019)
found at http://www.aviationweather.gov/metar/data/
 
Forecast for: HTDA (DAR ES SALAAM AR, TZ)
Text: HTDA 190500Z 1906/2012 03010KT 9999 BKN014
Forecast period: 0600 UTC 19 February 2019 to 1200 UTC 20 February 2019
Forecast type: FROM: standard forecast or significant change
Winds: from the NNE (30 degrees) at 12 MPH (10 knots; 5.1 m/s)
Visibility: 6 or more miles 10+ km)
Ceiling: 1400 feet AGL
Clouds: broken clouds at 1400 feet AGL
Weather: no significant weather forecast for this period